Time;durP1;ratioP1;P1;durP2;ratioP2;P2;SDS_P1;SDS_P2;PMS_P1;PMS_P2;Temp;Humidity;BMP_temperature;BMP_pressure;BME280_temperature;BME280_humidity;BME280_pressure;Samples;Min_cycle;Max_cycle;Signal;HPM_P1;HPM_P2
2022/05/01 00:02:06;;;;;;;;;28.25;23.50;;;;;;;;5014944;28;46278;-71
2022/05/01 00:04:31;;;;;;;;;25.75;24.00;;;;;;;;5015157;28;45844;-70
2022/05/01 00:06:57;;;;;;;;;25.50;23.25;;;;;;;;5015656;28;45681;-70
2022/05/01 00:09:22;;;;;;;;;20.75;20.00;;;;;;;;5015497;28;45363;-70
2022/05/01 00:11:48;;;;;;;;;24.00;23.25;;;;;;;;5015058;28;45447;-70
2022/05/01 00:14:14;;;;;;;;;22.25;20.75;;;;;;;;5012396;28;45498;-70
2022/05/01 00:16:40;;;;;;;;;26.50;24.25;;;;;;;;5015245;28;45515;-69
2022/05/01 00:19:08;;;;;;;;;22.50;20.00;;;;;;;;5015247;28;45376;-70
2022/05/01 00:21:33;;;;;;;;;24.50;20.25;;;;;;;;5013241;28;45434;-70
2022/05/01 00:23:59;;;;;;;;;27.25;24.00;;;;;;;;5017090;28;45155;-71
2022/05/01 00:26:24;;;;;;;;;23.25;22.00;;;;;;;;5016919;28;45452;-71
2022/05/01 00:28:50;;;;;;;;;23.00;21.50;;;;;;;;5017044;28;45414;-70
2022/05/01 00:31:16;;;;;;;;;21.75;19.25;;;;;;;;5016297;28;46105;-71
2022/05/01 00:36:28;;;;;;;;;26.25;23.00;;;;;;;;5016644;28;45513;-70
2022/05/01 00:38:57;;;;;;;;;27.75;25.00;;;;;;;;5016833;28;45335;-71
2022/05/01 00:41:23;;;;;;;;;26.50;23.75;;;;;;;;5016126;28;45390;-70
2022/05/01 00:44:03;;;;;;;;;21.75;20.75;;;;;;;;5016165;28;45500;-71
2022/05/01 00:46:29;;;;;;;;;25.00;24.50;;;;;;;;5016557;28;45444;-71
2022/05/01 00:48:54;;;;;;;;;24.00;23.00;;;;;;;;5016570;28;45430;-71
2022/05/01 00:51:20;;;;;;;;;27.50;23.75;;;;;;;;5016275;28;45363;-71
2022/05/01 00:53:47;;;;;;;;;25.75;23.50;;;;;;;;5016265;28;45363;-71
2022/05/01 00:56:12;;;;;;;;;28.00;26.75;;;;;;;;5019161;28;45392;-71
2022/05/01 00:58:38;;;;;;;;;31.25;27.50;;;;;;;;5020000;28;45469;-71
2022/05/01 01:01:03;;;;;;;;;33.00;28.75;;;;;;;;5019956;28;45909;-70
2022/05/01 01:03:28;;;;;;;;;26.25;24.00;;;;;;;;5019501;28;45307;-70
2022/05/01 01:05:54;;;;;;;;;25.00;23.00;;;;;;;;5019909;28;45363;-70
2022/05/01 01:08:19;;;;;;;;;27.75;27.25;;;;;;;;5019977;28;45489;-70
2022/05/01 01:10:44;;;;;;;;;27.25;23.00;;;;;;;;5019736;28;45613;-70
2022/05/01 01:13:12;;;;;;;;;28.25;25.50;;;;;;;;5019646;28;45256;-70
2022/05/01 01:15:37;;;;;;;;;27.25;23.75;;;;;;;;5019552;28;45471;-70
2022/05/01 01:18:03;;;;;;;;;27.50;24.00;;;;;;;;5019702;28;45470;-71
2022/05/01 01:20:29;;;;;;;;;28.25;25.25;;;;;;;;5019267;28;45457;-70
2022/05/01 01:22:56;;;;;;;;;25.50;23.75;;;;;;;;5019414;28;45443;-70
2022/05/01 01:25:26;;;;;;;;;26.00;23.25;;;;;;;;5019315;28;45552;-70
2022/05/01 01:27:53;;;;;;;;;27.50;24.00;;;;;;;;5019373;28;45511;-71
2022/05/01 01:33:03;;;;;;;;;33.00;27.00;;;;;;;;5018963;28;45474;-70
2022/05/01 01:35:29;;;;;;;;;29.25;24.00;;;;;;;;5019319;28;45342;-70
2022/05/01 01:37:55;;;;;;;;;27.25;25.25;;;;;;;;5019532;28;45569;-70
2022/05/01 01:40:21;;;;;;;;;26.00;22.25;;;;;;;;5018928;28;45421;-70
2022/05/01 01:42:49;;;;;;;;;30.25;27.25;;;;;;;;5019205;28;45716;-71
2022/05/01 01:45:14;;;;;;;;;26.75;24.25;;;;;;;;5019193;28;45263;-70
2022/05/01 01:47:40;;;;;;;;;29.50;25.75;;;;;;;;5019140;28;45315;-70
2022/05/01 01:50:05;;;;;;;;;28.25;23.25;;;;;;;;5019386;28;45328;-70
2022/05/01 01:52:33;;;;;;;;;28.25;26.50;;;;;;;;5019063;28;45399;-70
2022/05/01 01:54:59;;;;;;;;;22.00;20.00;;;;;;;;5018998;28;45312;-70
2022/05/01 01:57:24;;;;;;;;;25.25;21.75;;;;;;;;5019004;28;45518;-70
2022/05/01 01:59:50;;;;;;;;;24.75;22.00;;;;;;;;5018727;28;45366;-71
2022/05/01 02:02:15;;;;;;;;;24.75;22.25;;;;;;;;5018803;28;45469;-71
2022/05/01 02:04:40;;;;;;;;;24.25;22.25;;;;;;;;5018850;28;45445;-70
2022/05/01 02:07:06;;;;;;;;;24.75;22.75;;;;;;;;5018508;28;45213;-71
2022/05/01 02:09:32;;;;;;;;;27.25;24.75;;;;;;;;5018373;28;45902;-71
2022/05/01 02:11:57;;;;;;;;;24.00;21.75;;;;;;;;5018617;28;45357;-71
2022/05/01 02:14:23;;;;;;;;;26.00;23.25;;;;;;;;5018635;28;45378;-71
2022/05/01 02:16:48;;;;;;;;;24.75;24.00;;;;;;;;5018988;28;45261;-71
2022/05/01 02:19:14;;;;;;;;;23.75;22.50;;;;;;;;5018624;28;46326;-71
2022/05/01 02:21:40;;;;;;;;;21.75;20.50;;;;;;;;5018639;28;45612;-71
2022/05/01 02:24:09;;;;;;;;;24.00;22.75;;;;;;;;5018932;28;45532;-71
2022/05/01 02:26:38;;;;;;;;;25.25;23.00;;;;;;;;5018985;28;45401;-70
2022/05/01 02:29:09;;;;;;;;;25.25;23.25;;;;;;;;5018140;28;45562;-70
2022/05/01 02:31:36;;;;;;;;;29.50;27.00;;;;;;;;5018564;28;45350;-70
2022/05/01 02:34:01;;;;;;;;;26.00;24.00;;;;;;;;5018354;28;45464;-71
2022/05/01 02:36:26;;;;;;;;;26.75;23.00;;;;;;;;5018581;28;45398;-71
2022/05/01 02:38:51;;;;;;;;;25.75;22.00;;;;;;;;5018120;28;46110;-69
2022/05/01 02:41:17;;;;;;;;;22.75;21.00;;;;;;;;5018264;28;45261;-70
2022/05/01 02:43:43;;;;;;;;;26.25;23.50;;;;;;;;5018483;28;45431;-70
2022/05/01 02:46:08;;;;;;;;;26.00;23.50;;;;;;;;5018635;28;45442;-71
2022/05/01 02:48:34;;;;;;;;;22.00;21.00;;;;;;;;5018015;28;46044;-70
2022/05/01 02:50:59;;;;;;;;;26.00;24.00;;;;;;;;5018142;28;45509;-70
2022/05/01 02:53:24;;;;;;;;;23.75;22.25;;;;;;;;5017933;28;45488;-70
2022/05/01 02:55:50;;;;;;;;;22.50;20.50;;;;;;;;5018317;28;45410;-70
2022/05/01 02:58:15;;;;;;;;;26.25;23.50;;;;;;;;5017819;28;45365;-70
2022/05/01 03:00:40;;;;;;;;;20.75;20.75;;;;;;;;5018296;28;45337;-70
2022/05/01 03:03:06;;;;;;;;;23.25;20.25;;;;;;;;5016639;28;45458;-70
2022/05/01 03:05:31;;;;;;;;;22.50;21.00;;;;;;;;5018045;28;45485;-71
2022/05/01 03:07:56;;;;;;;;;27.25;21.50;;;;;;;;5017800;28;45999;-70
2022/05/01 03:10:22;;;;;;;;;25.25;22.00;;;;;;;;5016525;28;45489;-70
2022/05/01 03:12:47;;;;;;;;;25.25;23.00;;;;;;;;5016509;28;45382;-71
2022/05/01 03:15:13;;;;;;;;;26.00;22.75;;;;;;;;5017805;28;45335;-70
2022/05/01 03:23:06;;;;;;;;;21.25;21.00;;;;;;;;5017664;28;45400;-70
2022/05/01 03:25:32;;;;;;;;;23.25;21.00;;;;;;;;5017780;28;45343;-70
2022/05/01 03:27:58;;;;;;;;;23.25;20.25;;;;;;;;5017329;28;46146;-70
2022/05/01 03:30:23;;;;;;;;;26.25;23.75;;;;;;;;5017588;28;45520;-70
2022/05/01 03:32:49;;;;;;;;;22.00;21.25;;;;;;;;5017210;28;45390;-70
2022/05/01 03:35:15;;;;;;;;;23.00;21.00;;;;;;;;5017486;28;45484;-71
2022/05/01 03:37:41;;;;;;;;;22.25;20.75;;;;;;;;5017356;28;45499;-71
2022/05/01 03:40:07;;;;;;;;;30.00;28.75;;;;;;;;5017172;28;45508;-71
2022/05/01 03:42:33;;;;;;;;;29.00;23.00;;;;;;;;5017423;28;45316;-70
2022/05/01 03:44:58;;;;;;;;;34.00;27.00;;;;;;;;5017533;28;45437;-70
2022/05/01 03:47:23;;;;;;;;;24.50;24.50;;;;;;;;5016921;28;46267;-70
2022/05/01 03:49:49;;;;;;;;;22.50;21.00;;;;;;;;5017184;28;45543;-70
2022/05/01 03:52:14;;;;;;;;;22.50;20.25;;;;;;;;5017286;28;45559;-71
2022/05/01 03:54:39;;;;;;;;;22.75;20.75;;;;;;;;5017791;28;45476;-71
2022/05/01 03:57:05;;;;;;;;;32.25;28.75;;;;;;;;5017267;28;46212;-71
2022/05/01 03:59:30;;;;;;;;;26.25;24.00;;;;;;;;5017104;28;45366;-71
2022/05/01 04:01:55;;;;;;;;;27.00;22.75;;;;;;;;5017018;28;45536;-70
2022/05/01 04:04:21;;;;;;;;;25.75;22.25;;;;;;;;5017022;28;45516;-70
2022/05/01 04:06:47;;;;;;;;;23.75;22.25;;;;;;;;5016952;28;45330;-71
2022/05/01 04:09:12;;;;;;;;;27.00;23.25;;;;;;;;5017215;28;45402;-71
2022/05/01 04:11:37;;;;;;;;;25.50;22.50;;;;;;;;5017064;28;45283;-71
2022/05/01 04:14:03;;;;;;;;;21.25;18.75;;;;;;;;5017089;28;45437;-71
2022/05/01 04:16:28;;;;;;;;;24.50;21.75;;;;;;;;5016581;28;46188;-70
2022/05/01 04:18:54;;;;;;;;;22.50;21.50;;;;;;;;5016681;28;45341;-71
2022/05/01 04:21:19;;;;;;;;;22.00;20.50;;;;;;;;5016894;28;45392;-72
2022/05/01 04:23:44;;;;;;;;;19.00;18.75;;;;;;;;5017301;28;45386;-71
2022/05/01 04:26:10;;;;;;;;;22.50;21.50;;;;;;;;5016822;28;45540;-70
2022/05/01 04:28:35;;;;;;;;;22.75;18.75;;;;;;;;5016666;28;45947;-71
2022/05/01 04:31:01;;;;;;;;;25.25;19.75;;;;;;;;5019275;28;45414;-71
2022/05/01 04:33:27;;;;;;;;;20.75;18.75;;;;;;;;5020046;28;45411;-70
2022/05/01 04:35:53;;;;;;;;;19.50;15.25;;;;;;;;5020118;28;46106;-71
2022/05/01 04:38:20;;;;;;;;;19.50;18.25;;;;;;;;5020132;28;45339;-70
2022/05/01 04:40:50;;;;;;;;;25.25;22.25;;;;;;;;5020543;28;45345;-70
2022/05/01 04:43:17;;;;;;;;;25.25;22.25;;;;;;;;5020641;28;45299;-69
2022/05/01 04:45:43;;;;;;;;;27.50;22.00;;;;;;;;5019962;28;45315;-71
2022/05/01 04:48:09;;;;;;;;;28.25;23.50;;;;;;;;5019898;28;45374;-70
2022/05/01 04:50:35;;;;;;;;;22.25;18.00;;;;;;;;5019994;28;45378;-70
2022/05/01 04:53:01;;;;;;;;;19.75;18.75;;;;;;;;5020084;28;45579;-70
2022/05/01 04:55:26;;;;;;;;;20.00;19.25;;;;;;;;5019534;28;46227;-70
2022/05/01 04:57:52;;;;;;;;;22.50;22.50;;;;;;;;5019732;28;45487;-70
2022/05/01 05:00:20;;;;;;;;;24.25;18.25;;;;;;;;5020101;28;45505;-70
2022/05/01 05:02:48;;;;;;;;;21.00;19.75;;;;;;;;5020436;28;45332;-71
2022/05/01 05:05:14;;;;;;;;;26.50;22.00;;;;;;;;5019838;28;45482;-71
2022/05/01 05:07:40;;;;;;;;;24.50;19.75;;;;;;;;5019329;28;45339;-71
2022/05/01 05:10:06;;;;;;;;;21.25;19.75;;;;;;;;5019691;28;45284;-71
2022/05/01 05:12:32;;;;;;;;;20.50;18.00;;;;;;;;5019760;28;45432;-71
2022/05/01 05:15:00;;;;;;;;;23.00;21.00;;;;;;;;5017979;28;46043;-69
2022/05/01 05:17:25;;;;;;;;;21.75;20.75;;;;;;;;5017854;28;45416;-70
2022/05/01 05:19:50;;;;;;;;;19.50;18.50;;;;;;;;5017562;28;45391;-70
2022/05/01 05:22:16;;;;;;;;;24.25;20.50;;;;;;;;5018221;28;45490;-69
2022/05/01 05:24:42;;;;;;;;;21.75;19.50;;;;;;;;5017439;28;45533;-70
2022/05/01 05:27:07;;;;;;;;;22.75;20.50;;;;;;;;5017669;28;45538;-70
2022/05/01 05:29:33;;;;;;;;;20.00;18.25;;;;;;;;5017492;28;45383;-70
2022/05/01 05:31:59;;;;;;;;;20.25;18.00;;;;;;;;5017851;28;45385;-70
2022/05/01 05:34:24;;;;;;;;;22.00;19.25;;;;;;;;5017381;28;46515;-70
2022/05/01 05:36:50;;;;;;;;;24.75;22.00;;;;;;;;5017214;28;45382;-71
2022/05/01 05:39:15;;;;;;;;;29.00;22.00;;;;;;;;5017912;28;45566;-69
2022/05/01 05:41:41;;;;;;;;;22.00;18.00;;;;;;;;5016475;28;45402;-70
2022/05/01 05:44:06;;;;;;;;;22.50;21.25;;;;;;;;5015852;28;47915;-69
2022/05/01 05:46:32;;;;;;;;;21.00;19.00;;;;;;;;5017352;28;45429;-70
2022/05/01 05:48:57;;;;;;;;;21.75;19.75;;;;;;;;5017427;28;45366;-70
2022/05/01 05:51:23;;;;;;;;;19.00;16.25;;;;;;;;5017508;28;45462;-70
2022/05/01 05:53:51;;;;;;;;;24.00;20.50;;;;;;;;5017322;28;46078;-69
2022/05/01 05:56:17;;;;;;;;;23.75;19.00;;;;;;;;5015099;28;45514;-70
2022/05/01 05:58:42;;;;;;;;;27.25;21.00;;;;;;;;5017091;28;45362;-69
2022/05/01 06:01:09;;;;;;;;;26.00;23.25;;;;;;;;5017338;28;45332;-69
2022/05/01 06:03:35;;;;;;;;;22.00;20.75;;;;;;;;5016988;28;45597;-69
2022/05/01 06:06:00;;;;;;;;;20.50;18.75;;;;;;;;5016872;28;45605;-69
2022/05/01 06:08:26;;;;;;;;;19.00;17.25;;;;;;;;5017170;28;45776;-70
2022/05/01 06:10:51;;;;;;;;;19.00;18.75;;;;;;;;5016950;28;45536;-71
2022/05/01 06:13:16;;;;;;;;;20.75;19.25;;;;;;;;5017049;28;45461;-70
2022/05/01 06:15:43;;;;;;;;;24.00;21.50;;;;;;;;5016726;28;45462;-70
2022/05/01 06:18:10;;;;;;;;;19.50;18.75;;;;;;;;5016761;28;45477;-70
2022/05/01 06:20:35;;;;;;;;;22.50;21.00;;;;;;;;5014242;28;45497;-70
2022/05/01 06:23:01;;;;;;;;;25.50;20.25;;;;;;;;5016591;28;45949;-70
2022/05/01 06:25:26;;;;;;;;;24.50;19.00;;;;;;;;5016865;28;45398;-70
2022/05/01 06:27:51;;;;;;;;;23.50;18.50;;;;;;;;5016756;28;45377;-70
2022/05/01 06:30:17;;;;;;;;;22.25;21.25;;;;;;;;5017191;28;45322;-70
2022/05/01 06:32:43;;;;;;;;;22.75;20.75;;;;;;;;5016334;28;45440;-70
2022/05/01 06:35:08;;;;;;;;;21.25;18.50;;;;;;;;5016947;28;46039;-71
2022/05/01 06:37:35;;;;;;;;;22.25;20.25;;;;;;;;5016654;28;45541;-70
2022/05/01 06:40:00;;;;;;;;;22.00;18.50;;;;;;;;5016675;28;45466;-69
2022/05/01 06:42:26;;;;;;;;;19.25;17.50;;;;;;;;5016128;28;46015;-70
2022/05/01 06:44:51;;;;;;;;;21.50;21.00;;;;;;;;5016300;28;45456;-70
2022/05/01 06:47:16;;;;;;;;;22.25;19.50;;;;;;;;5016729;28;45532;-70
2022/05/01 06:49:42;;;;;;;;;22.00;19.00;;;;;;;;5016403;28;45323;-70
2022/05/01 06:52:07;;;;;;;;;21.00;19.50;;;;;;;;5015949;28;46403;-70
2022/05/01 06:54:33;;;;;;;;;22.00;18.75;;;;;;;;5015721;28;45331;-70
2022/05/01 06:56:58;;;;;;;;;21.75;17.75;;;;;;;;5016345;28;45553;-70
2022/05/01 06:59:24;;;;;;;;;24.50;21.75;;;;;;;;5016328;28;45541;-70
2022/05/01 07:01:49;;;;;;;;;18.75;17.25;;;;;;;;5015794;28;45498;-70
2022/05/01 07:04:14;;;;;;;;;23.00;20.50;;;;;;;;5016285;28;45442;-71
2022/05/01 07:06:43;;;;;;;;;27.25;23.50;;;;;;;;5016230;28;45422;-70
2022/05/01 07:09:09;;;;;;;;;22.75;19.75;;;;;;;;5016369;28;45660;-70
2022/05/01 07:11:34;;;;;;;;;23.75;21.50;;;;;;;;5015530;28;45689;-70
2022/05/01 07:14:00;;;;;;;;;22.50;21.25;;;;;;;;5015694;28;45326;-70
2022/05/01 07:16:25;;;;;;;;;25.50;23.75;;;;;;;;5016073;28;45450;-70
2022/05/01 07:18:50;;;;;;;;;19.50;19.00;;;;;;;;5016175;28;45679;-70
2022/05/01 07:21:16;;;;;;;;;29.00;24.00;;;;;;;;5013589;28;45636;-70
2022/05/01 07:23:41;;;;;;;;;25.25;23.50;;;;;;;;5015566;28;45546;-70
2022/05/01 07:26:06;;;;;;;;;23.50;20.50;;;;;;;;5016088;28;45525;-70
2022/05/01 07:28:33;;;;;;;;;27.00;25.75;;;;;;;;5014158;28;45448;-71
2022/05/01 07:30:59;;;;;;;;;25.75;23.75;;;;;;;;5014812;28;46409;-69
2022/05/01 07:33:25;;;;;;;;;27.50;23.00;;;;;;;;5014261;28;45506;-70
2022/05/01 07:35:50;;;;;;;;;25.75;25.50;;;;;;;;5015151;28;45489;-69
2022/05/01 07:38:17;;;;;;;;;27.00;25.00;;;;;;;;5016625;28;45568;-69
2022/05/01 07:40:42;;;;;;;;;52.25;42.00;;;;;;;;5015782;28;46173;-71
2022/05/01 07:43:07;;;;;;;;;34.25;30.25;;;;;;;;5014375;28;45417;-70
2022/05/01 07:45:33;;;;;;;;;33.50;29.75;;;;;;;;5014275;28;45786;-70
2022/05/01 07:47:59;;;;;;;;;27.00;25.75;;;;;;;;5014720;28;45542;-70
2022/05/01 07:50:25;;;;;;;;;28.75;26.50;;;;;;;;5014603;28;46204;-71
2022/05/01 07:52:50;;;;;;;;;29.75;28.00;;;;;;;;5015816;28;45327;-71
2022/05/01 07:55:15;;;;;;;;;25.00;24.25;;;;;;;;5016325;28;45403;-71
2022/05/01 07:57:41;;;;;;;;;33.50;29.00;;;;;;;;5015526;28;45418;-72
2022/05/01 08:00:07;;;;;;;;;27.25;24.00;;;;;;;;5015725;28;46165;-71
2022/05/01 08:02:34;;;;;;;;;27.00;26.00;;;;;;;;4997878;27;45585;-72
2022/05/01 08:04:59;;;;;;;;;33.00;27.50;;;;;;;;5013470;28;45544;-72
2022/05/01 08:07:25;;;;;;;;;35.50;31.00;;;;;;;;5012913;28;45738;-72
2022/05/01 08:09:50;;;;;;;;;30.75;29.50;;;;;;;;5011604;28;46271;-73
2022/05/01 08:12:16;;;;;;;;;27.00;26.50;;;;;;;;5014532;28;45482;-72
2022/05/01 08:14:44;;;;;;;;;33.00;29.50;;;;;;;;5015380;28;45304;-72
2022/05/01 08:17:09;;;;;;;;;32.75;29.00;;;;;;;;5015895;28;45368;-71
2022/05/01 08:22:18;;;;;;;;;31.00;27.75;;;;;;;;5015456;28;45802;-71
2022/05/01 08:24:44;;;;;;;;;27.25;24.75;;;;;;;;5015294;28;45423;-71
2022/05/01 08:27:09;;;;;;;;;27.50;26.50;;;;;;;;5015553;28;45316;-71
2022/05/01 08:29:36;;;;;;;;;30.25;26.00;;;;;;;;4982499;27;45429;-72
2022/05/01 08:32:03;;;;;;;;;28.50;26.00;;;;;;;;5014570;28;45440;-73
2022/05/01 08:34:28;;;;;;;;;33.25;28.50;;;;;;;;5014949;28;45442;-73
2022/05/01 08:36:54;;;;;;;;;57.75;47.50;;;;;;;;5015446;28;45413;-73
2022/05/01 08:39:19;;;;;;;;;34.00;31.00;;;;;;;;5015420;28;45386;-73
2022/05/01 08:41:44;;;;;;;;;33.00;29.50;;;;;;;;5015729;28;45507;-72
2022/05/01 08:44:14;;;;;;;;;35.75;31.25;;;;;;;;5015543;28;45509;-72
2022/05/01 08:46:52;;;;;;;;;33.00;29.75;;;;;;;;5015728;28;45810;-72
2022/05/01 08:49:17;;;;;;;;;35.25;32.25;;;;;;;;5014620;28;45548;-72
2022/05/01 08:51:43;;;;;;;;;52.25;43.75;;;;;;;;5014889;28;45515;-73
2022/05/01 08:54:13;;;;;;;;;58.25;47.25;;;;;;;;5015213;28;45394;-72
2022/05/01 08:56:42;;;;;;;;;39.50;35.25;;;;;;;;5015423;28;45421;-72
2022/05/01 08:59:11;;;;;;;;;49.75;39.75;;;;;;;;5015020;28;45939;-72
2022/05/01 09:01:38;;;;;;;;;31.50;28.75;;;;;;;;5015022;28;45477;-72
2022/05/01 09:04:08;;;;;;;;;41.25;35.25;;;;;;;;5011108;28;45781;-71
2022/05/01 09:06:35;;;;;;;;;49.25;38.00;;;;;;;;5015585;28;45481;-71
2022/05/01 09:09:03;;;;;;;;;33.50;32.25;;;;;;;;5013631;28;45986;-70
2022/05/01 09:14:12;;;;;;;;;53.50;42.00;;;;;;;;5014728;28;45383;-72
2022/05/01 09:16:39;;;;;;;;;35.75;33.00;;;;;;;;5016676;28;45345;-72
2022/05/01 09:19:10;;;;;;;;;32.50;30.50;;;;;;;;5018445;28;46218;-74
2022/05/01 09:21:49;;;;;;;;;34.50;31.75;;;;;;;;5016569;28;45615;-71
2022/05/01 09:24:24;;;;;;;;;34.25;31.75;;;;;;;;5017495;28;45458;-72
2022/05/01 09:26:49;;;;;;;;;31.00;29.75;;;;;;;;5018604;28;45509;-71
2022/05/01 09:29:20;;;;;;;;;36.75;32.50;;;;;;;;5016504;28;46710;-70
2022/05/01 09:31:46;;;;;;;;;31.50;31.00;;;;;;;;5017608;28;45421;-71
2022/05/01 09:34:21;;;;;;;;;31.50;27.25;;;;;;;;5017875;28;45415;-71
2022/05/01 09:36:47;;;;;;;;;33.75;28.25;;;;;;;;5026792;28;45561;-71
2022/05/01 09:39:23;;;;;;;;;31.50;26.75;;;;;;;;5029719;28;46079;-71
2022/05/01 09:41:49;;;;;;;;;31.50;29.00;;;;;;;;5018371;28;45510;-70
2022/05/01 09:44:15;;;;;;;;;31.50;30.00;;;;;;;;5018078;28;45252;-71
2022/05/01 09:46:42;;;;;;;;;31.00;26.00;;;;;;;;5017539;28;45354;-72
2022/05/01 09:49:10;;;;;;;;;29.50;27.50;;;;;;;;5016940;28;45612;-72
2022/05/01 09:51:46;;;;;;;;;31.00;26.75;;;;;;;;5017689;28;45775;-72
2022/05/01 09:54:18;;;;;;;;;32.75;27.75;;;;;;;;5016850;28;45496;-71
2022/05/01 09:56:45;;;;;;;;;31.75;28.75;;;;;;;;5017667;28;45486;-73
2022/05/01 09:59:10;;;;;;;;;28.25;26.50;;;;;;;;5016926;28;46692;-73
2022/05/01 10:01:36;;;;;;;;;31.50;26.50;;;;;;;;5017581;28;45614;-73
2022/05/01 10:04:02;;;;;;;;;33.50;31.00;;;;;;;;5017273;28;45390;-72
2022/05/01 10:06:31;;;;;;;;;36.25;31.00;;;;;;;;5017403;28;45276;-72
2022/05/01 10:08:57;;;;;;;;;32.75;29.75;;;;;;;;5016790;28;45609;-73
2022/05/01 10:11:23;;;;;;;;;33.50;30.75;;;;;;;;5017121;28;45443;-73
2022/05/01 10:13:49;;;;;;;;;30.67;28.33;;;;;;;;5017526;28;45436;-72
2022/05/01 10:16:17;;;;;;;;;29.67;28.67;;;;;;;;5017748;28;45472;-73
2022/05/01 10:18:44;;;;;;;;;35.25;29.50;;;;;;;;5017015;28;45571;-72
2022/05/01 10:21:10;;;;;;;;;28.33;26.67;;;;;;;;5016476;28;45493;-71
2022/05/01 10:23:36;;;;;;;;;28.33;26.67;;;;;;;;5016684;28;45776;-72
2022/05/01 10:26:06;;;;;;;;;37.75;33.25;;;;;;;;5017414;28;45509;-72
2022/05/01 10:28:37;;;;;;;;;33.33;30.00;;;;;;;;5016120;28;46375;-73
2022/05/01 10:34:08;;;;;;;;;30.00;25.33;;;;;;;;5017205;28;45386;-72
2022/05/01 10:36:47;;;;;;;;;30.75;27.00;;;;;;;;5017227;28;45398;-73
2022/05/01 10:39:15;;;;;;;;;33.50;29.75;;;;;;;;5017155;28;46229;-73
2022/05/01 10:41:42;;;;;;;;;34.50;31.25;;;;;;;;5016576;28;45565;-72
2022/05/01 10:44:07;;;;;;;;;34.00;31.50;;;;;;;;5016912;28;45438;-72
2022/05/01 10:46:34;;;;;;;;;28.00;25.75;;;;;;;;5016552;28;45532;-71
2022/05/01 10:49:03;;;;;;;;;34.25;31.25;;;;;;;;5015681;28;45471;-70
2022/05/01 10:51:31;;;;;;;;;36.75;32.25;;;;;;;;5015996;28;45459;-70
2022/05/01 10:54:15;;;;;;;;;37.25;31.00;;;;;;;;5016213;28;45505;-70
2022/05/01 10:56:48;;;;;;;;;32.75;30.50;;;;;;;;5015767;28;45748;-70
2022/05/01 10:59:29;;;;;;;;;32.25;30.75;;;;;;;;5017043;28;45490;-73
2022/05/01 11:01:55;;;;;;;;;36.75;31.75;;;;;;;;5017334;28;45662;-71
2022/05/01 11:04:23;;;;;;;;;31.50;29.25;;;;;;;;5016772;28;45600;-71
2022/05/01 11:06:50;;;;;;;;;31.75;28.25;;;;;;;;5017620;28;45302;-71
2022/05/01 11:09:19;;;;;;;;;37.75;32.25;;;;;;;;5017056;28;45683;-71
2022/05/01 11:11:45;;;;;;;;;28.50;27.00;;;;;;;;5017468;28;45349;-70
2022/05/01 11:14:12;;;;;;;;;38.50;33.25;;;;;;;;5017537;28;45357;-71
2022/05/01 11:16:51;;;;;;;;;36.50;33.25;;;;;;;;5017726;28;45390;-71
2022/05/01 11:19:17;;;;;;;;;37.25;33.25;;;;;;;;5017222;28;46112;-71
2022/05/01 11:21:48;;;;;;;;;35.50;30.50;;;;;;;;5017190;28;45495;-71
2022/05/01 11:24:15;;;;;;;;;43.00;34.50;;;;;;;;5017453;28;45482;-71
2022/05/01 11:27:00;;;;;;;;;40.00;33.75;;;;;;;;5016124;28;45519;-71
2022/05/01 11:29:25;;;;;;;;;34.75;32.75;;;;;;;;5017476;28;45450;-71
2022/05/01 11:31:52;;;;;;;;;34.00;30.50;;;;;;;;5032715;28;45356;-71
2022/05/01 11:34:17;;;;;;;;;37.25;32.50;;;;;;;;5017478;28;45338;-71
2022/05/01 11:36:57;;;;;;;;;41.25;34.00;;;;;;;;5017665;28;45422;-71
2022/05/01 11:39:41;;;;;;;;;41.00;34.25;;;;;;;;5016375;28;45363;-71
2022/05/01 11:42:30;;;;;;;;;40.00;34.50;;;;;;;;5017163;28;45394;-71
2022/05/01 11:44:56;;;;;;;;;32.25;29.00;;;;;;;;5017542;28;45271;-71
2022/05/01 11:47:22;;;;;;;;;36.50;33.25;;;;;;;;5017092;28;45449;-71
2022/05/01 11:49:48;;;;;;;;;36.00;31.75;;;;;;;;5016890;28;45538;-71
2022/05/01 11:52:16;;;;;;;;;35.50;33.00;;;;;;;;5017056;28;45421;-71
2022/05/01 11:54:49;;;;;;;;;37.00;31.25;;;;;;;;5015604;28;45498;-71
2022/05/01 12:02:45;;;;;;;;;38.50;34.25;;;;;;;;5016675;28;45543;-72
2022/05/01 12:05:10;;;;;;;;;34.25;30.75;;;;;;;;5016694;28;45527;-71
2022/05/01 12:07:36;;;;;;;;;39.00;33.75;;;;;;;;5017022;28;45337;-71
2022/05/01 12:10:01;;;;;;;;;36.25;32.25;;;;;;;;5016919;28;46182;-71
2022/05/01 12:12:28;;;;;;;;;36.00;30.50;;;;;;;;5017192;28;45557;-71
2022/05/01 12:14:53;;;;;;;;;35.50;32.25;;;;;;;;5016988;28;45488;-71
2022/05/01 12:17:19;;;;;;;;;35.00;30.75;;;;;;;;5016859;28;45246;-71
2022/05/01 12:19:47;;;;;;;;;38.00;32.00;;;;;;;;5015413;28;45575;-71
2022/05/01 12:22:13;;;;;;;;;34.50;30.75;;;;;;;;5016485;28;45325;-71
2022/05/01 12:24:39;;;;;;;;;30.00;27.25;;;;;;;;5016759;28;45380;-71
2022/05/01 12:27:05;;;;;;;;;33.25;30.75;;;;;;;;5016763;28;45302;-71
2022/05/01 12:29:33;;;;;;;;;32.50;30.75;;;;;;;;5016299;28;45619;-71
2022/05/01 12:31:59;;;;;;;;;27.50;26.50;;;;;;;;5016818;28;45398;-71
2022/05/01 12:34:25;;;;;;;;;35.50;32.00;;;;;;;;5016428;28;45198;-71
2022/05/01 12:37:01;;;;;;;;;34.25;31.50;;;;;;;;5016776;28;45385;-71
2022/05/01 12:39:27;;;;;;;;;36.50;32.75;;;;;;;;5016348;28;45275;-72
2022/05/01 12:45:05;;;;;;;;;38.50;33.25;;;;;;;;5016228;28;46021;-71
2022/05/01 12:47:33;;;;;;;;;32.75;28.75;;;;;;;;5016639;28;45280;-71
2022/05/01 12:49:58;;;;;;;;;35.50;31.25;;;;;;;;5015903;28;46634;-71
2022/05/01 12:52:34;;;;;;;;;35.00;30.50;;;;;;;;5018989;28;45361;-71
2022/05/01 12:55:06;;;;;;;;;31.00;28.50;;;;;;;;5019881;28;45473;-71
2022/05/01 12:57:34;;;;;;;;;33.33;32.00;;;;;;;;5020041;28;45233;-71
2022/05/01 13:00:00;;;;;;;;;39.00;31.33;;;;;;;;5019581;28;45469;-71
2022/05/01 13:02:25;;;;;;;;;27.00;25.00;;;;;;;;5019557;28;45231;-71
2022/05/01 13:05:03;;;;;;;;;29.75;28.50;;;;;;;;5019756;28;45485;-71
2022/05/01 13:07:31;;;;;;;;;37.75;31.25;;;;;;;;5018649;28;45477;-71
2022/05/01 13:09:57;;;;;;;;;43.75;35.25;;;;;;;;5019029;28;45318;-70
2022/05/01 13:12:32;;;;;;;;;34.00;30.50;;;;;;;;5019321;28;45525;-71
2022/05/01 13:14:59;;;;;;;;;36.75;30.75;;;;;;;;5019555;28;45500;-71
2022/05/01 13:17:27;;;;;;;;;38.50;32.50;;;;;;;;5019756;28;45422;-72
2022/05/01 13:19:53;;;;;;;;;37.25;30.50;;;;;;;;5019324;28;45467;-71
2022/05/01 13:22:18;;;;;;;;;33.75;28.25;;;;;;;;5019155;28;45445;-72
2022/05/01 13:24:44;;;;;;;;;38.25;32.00;;;;;;;;5019099;28;45941;-71
2022/05/01 13:27:11;;;;;;;;;34.00;31.25;;;;;;;;5018013;28;45481;-74
2022/05/01 13:29:37;;;;;;;;;33.00;29.75;;;;;;;;5018948;28;45550;-71
2022/05/01 13:32:05;;;;;;;;;35.33;29.33;;;;;;;;5019287;28;45389;-72
2022/05/01 13:34:30;;;;;;;;;30.00;27.00;;;;;;;;5018956;28;45242;-72
2022/05/01 13:37:02;;;;;;;;;38.25;32.50;;;;;;;;5018767;28;45390;-71
2022/05/01 13:44:56;;;;;;;;;33.33;30.67;;;;;;;;5018640;28;45294;-71
2022/05/01 13:47:22;;;;;;;;;31.67;27.33;;;;;;;;5016605;28;45529;-71
2022/05/01 13:49:47;;;;;;;;;29.00;28.33;;;;;;;;5018159;28;46207;-71
2022/05/01 13:52:13;;;;;;;;;33.00;28.00;;;;;;;;5018349;28;45243;-71
2022/05/01 13:54:38;;;;;;;;;31.67;30.00;;;;;;;;5017912;28;45406;-71
2022/05/01 13:57:04;;;;;;;;;33.75;30.00;;;;;;;;5018696;28;45550;-71
2022/05/01 13:59:29;;;;;;;;;32.00;29.67;;;;;;;;5018154;28;45396;-71
2022/05/01 14:01:56;;;;;;;;;37.25;33.50;;;;;;;;5017604;28;45454;-71
2022/05/01 14:04:22;;;;;;;;;36.25;31.50;;;;;;;;5017725;28;45203;-72
2022/05/01 14:06:48;;;;;;;;;28.33;27.00;;;;;;;;5018516;28;45425;-73
2022/05/01 14:09:17;;;;;;;;;32.50;30.50;;;;;;;;5017459;28;45560;-75
2022/05/01 14:11:46;;;;;;;;;34.00;30.67;;;;;;;;5018076;28;45410;-71
2022/05/01 14:14:12;;;;;;;;;22.67;20.33;;;;;;;;5018000;28;45478;-73
2022/05/01 14:16:39;;;;;;;;;36.33;30.33;;;;;;;;5016954;28;45633;-72
2022/05/01 14:19:05;;;;;;;;;30.00;28.75;;;;;;;;5018397;28;46364;-72
2022/05/01 14:21:32;;;;;;;;;35.50;31.25;;;;;;;;5017875;28;45279;-72
2022/05/01 14:23:57;;;;;;;;;38.25;33.25;;;;;;;;5018273;28;45431;-73
2022/05/01 14:26:23;;;;;;;;;41.50;33.75;;;;;;;;5017992;28;45470;-72
2022/05/01 14:28:48;;;;;;;;;35.75;30.25;;;;;;;;5018192;28;45364;-71
2022/05/01 14:31:19;;;;;;;;;34.50;30.25;;;;;;;;5018129;28;45342;-73
2022/05/01 14:34:02;;;;;;;;;33.67;30.67;;;;;;;;5017964;28;45271;-72
2022/05/01 14:36:31;;;;;;;;;37.00;31.00;;;;;;;;5016607;28;45465;-68
2022/05/01 14:39:04;;;;;;;;;35.75;30.25;;;;;;;;5017229;28;46127;-68
2022/05/01 14:41:38;;;;;;;;;36.50;33.25;;;;;;;;5011424;28;45472;-67
2022/05/01 14:44:04;;;;;;;;;37.50;30.25;;;;;;;;5017115;28;45547;-67
2022/05/01 14:46:39;;;;;;;;;41.00;34.75;;;;;;;;5018390;28;45380;-67
2022/05/01 14:49:05;;;;;;;;;41.50;36.50;;;;;;;;5013550;28;46509;-68